Canby, Oregon
Current Conditions -  °F | °C
As of 3:53 AM on Friday 24 Oct 2014 (Local Time) from KUAO Reporting Station
Overcast Overcast  
Wind Chill: 50°   Ceiling: 6000
Heat Index: 50°   Visibility: 10mi
Dew Point: 49°   Wind: 3mph
Humidity: 96%   Direction: 40°NE
Pressure: 30.03"   Gusts: NA
Location:  45.26°N, 122.69°W
Report Text: KUAO 241053Z AUTO 04003KT 10SM OVC060 10/09 A3003 RMK AO2 SLP169 T01000094
Loading
Personal Weather Stations






























Interactive Weather Map
Tropical Storm Tracking
New forecast layout! Learn more

10-Day Weather Forecast

Advertisements
Track Severe Weather on mobile